Weather reports worldwide

Advertisment
Bala, United Kingdom (3409): temperature & dewpoint: 19.09.2018 07:00:00 - 25.09.2018 07:00:00 (BST)Bala, United Kingdom (3409): temperature -20cm & temperature -100cm: 19.09.2018 07:00:00 - 25.09.2018 07:00:00 (BST)Bala, United Kingdom (3409): wind speed & gusts: 19.09.2018 07:00:00 - 25.09.2018 07:00:00 (BST)Bala, United Kingdom (3409): wind direction: 19.09.2018 07:00:00 - 25.09.2018 07:00:00 (BST)Bala, United Kingdom (3409): reduced air pressure: 19.09.2018 07:00:00 - 25.09.2018 07:00:00 (BST)Bala, United Kingdom (3409): sunshine duration: 19.09.2018 07:00:00 - 25.09.2018 07:00:00 (BST)Bala, United Kingdom (3409): precipitation: 19.09.2018 07:00:00 - 25.09.2018 07:00:00 (BST)
Date & Time tt [°C] td [°C] tt -20cm [°C] tt -100cm [°C] ff [km/h] ff [kn] fx [km/h] fx [kn] dd ppp [hPa] sd [min] rr [mm]
25.09.2018 07:00:00 - - - - - - - - - - - -
25.09.2018 06:00:00 0,2 -0,1 - - 4 2 - - N 1038,1 0 0,0
25.09.2018 05:00:00 0,5 0,2 - - 2 1 - - ENE 1039,0 0 0,0
25.09.2018 04:00:00 0,1 -0,2 - - 2 1 - - E 1039,5 0 0,0
25.09.2018 03:00:00 0,4 0,0 - - 2 1 - - ENE 1039,4 0 0,0
25.09.2018 02:00:00 0,4 -0,1 - - 0 0 - - N 1040,0 0 0,0
25.09.2018 01:00:00 0,7 0,1 - - 0 0 - - N 1040,3 - 0,0
25.09.2018 00:00:00 1,6 0,9 - - 2 1 - - NNW 1040,6 0 0,0
24.09.2018 23:00:00 2,2 1,5 - - 2 1 - - S 1040,4 0 0,0
24.09.2018 22:00:00 3,8 2,9 - - 2 1 - - SW 1040,1 0 0,0
24.09.2018 21:00:00 4,6 3,0 - - 0 0 - - N 1039,9 0 0,0
24.09.2018 20:00:00 6,8 3,6 - - 2 1 - - W 1039,3 0 0,0
24.09.2018 19:00:00 10,6 3,3 - - 5 3 - - W 1038,8 54 0,0
24.09.2018 18:00:00 12,1 5,1 - - 5 3 - - WNW 1038,6 30 0,0
24.09.2018 17:00:00 12,8 4,6 - - 9 5 - - W 1038,6 54 0,0
24.09.2018 16:00:00 13,9 4,7 - - 8 4 - - W 1038,6 54 0,0
24.09.2018 15:00:00 12,6 4,7 - - 5 3 - - NW 1038,8 0 0,0
24.09.2018 14:00:00 12,8 3,4 - - 5 3 - - WNW 1039,0 6 0,0
24.09.2018 13:00:00 13,0 5,3 - - 5 3 - - NW 1039,2 42 0,0
24.09.2018 12:00:00 12,5 3,6 - - 8 4 - - W 1039,0 48 0,0
24.09.2018 11:00:00 12,2 5,1 - - 5 3 - - WSW 1039,3 60 0,0
24.09.2018 10:00:00 9,8 6,0 13,7 14,2 4 2 - - WSW 1038,9 60 0,0
24.09.2018 09:00:00 6,0 5,2 - - 4 2 - - SW 1038,8 18 0,0
24.09.2018 08:00:00 4,2 3,4 - - 4 2 - - W 1038,4 0 0,0
24.09.2018 07:00:00 5,1 4,2 - - 8 4 - - WSW 1037,5 0 0,0
24.09.2018 06:00:00 4,3 3,2 - - 5 3 - - SW 1037,2 0 0,0
24.09.2018 05:00:00 5,8 4,7 - - 5 3 - - WSW 1036,8 0 0,0
24.09.2018 04:00:00 5,4 3,7 - - 4 2 - - W 1036,6 0 0,0
24.09.2018 03:00:00 5,9 4,3 - - 4 2 - - W 1036,1 0 0,0
24.09.2018 02:00:00 7,2 5,9 - - 9 5 - - WSW 1035,6 0 0,0
24.09.2018 01:00:00 5,8 5,3 - - 8 4 - - SW 1035,0 - 0,0
24.09.2018 00:00:00 4,2 3,6 - - 2 1 - - NW 1034,0 0 0,0
23.09.2018 23:00:00 4,7 3,9 - - 2 1 - - NE 1032,9 0 0,2
23.09.2018 22:00:00 5,4 4,1 - - 4 2 - - NE 1032,2 0 0,0
23.09.2018 21:00:00 6,8 4,9 - - 8 4 - - SW 1031,1 0 0,0
23.09.2018 20:00:00 8,0 4,8 - - 5 3 - - WSW 1029,9 0 0,0
23.09.2018 19:00:00 9,5 4,8 - - 5 3 - - W 1028,6 12 0,0
23.09.2018 18:00:00 10,7 4,9 - - 9 5 - - NW 1027,5 54 0,0
23.09.2018 17:00:00 10,9 5,7 - - 9 5 - - NW 1026,4 42 0,2
23.09.2018 16:00:00 11,1 5,3 - - 13 7 - - WNW 1025,3 24 0,0
23.09.2018 15:00:00 9,7 4,5 - - 13 7 - - NNW 1024,8 12 0,2
23.09.2018 14:00:00 10,3 4,7 - - 15 8 - - NW 1023,4 18 0,6
23.09.2018 13:00:00 9,4 5,1 - - 15 8 - - WNW 1022,5 24 0,0
23.09.2018 12:00:00 9,9 5,5 - - 9 5 - - WNW 1021,1 6 0,6
23.09.2018 11:00:00 11,3 5,9 - - 11 6 - - NW 1019,8 42 0,0
23.09.2018 10:00:00 8,5 5,8 13,9 14,4 8 4 - - NNW 1019,6 6 0,4
23.09.2018 09:00:00 8,0 6,9 - - 4 2 - - SSW 1018,7 0 0,0
23.09.2018 08:00:00 7,3 6,9 - - 2 1 - - W 1018,2 0 1,4
23.09.2018 07:00:00 6,5 6,1 - - 2 1 - - NNW 1017,5 0 0,2
23.09.2018 06:00:00 6,3 6,0 - - 4 2 - - N 1017,3 0 0,2
23.09.2018 05:00:00 6,1 5,7 - - 2 1 - - ENE 1016,7 0 0,0
23.09.2018 04:00:00 5,8 5,2 - - 0 0 - - N 1017,1 0 0,0
23.09.2018 03:00:00 6,0 5,4 - - 0 0 - - N 1017,1 0 0,0
23.09.2018 02:00:00 6,2 5,6 - - 0 0 - - N 1016,9 0 0,0
23.09.2018 01:00:00 6,3 5,8 - - 2 1 - - NNE 1016,9 - 0,0
23.09.2018 00:00:00 6,1 5,5 - - 2 1 - - E 1016,7 0 0,0
22.09.2018 23:00:00 5,9 5,3 - - 2 1 - - ESE 1016,8 0 0,0
22.09.2018 22:00:00 6,1 5,1 - - 0 0 - - N 1016,7 0 0,0
22.09.2018 21:00:00 7,6 5,9 - - 2 1 - - E 1016,0 0 0,0
22.09.2018 20:00:00 8,5 6,1 - - 4 2 - - NNE 1015,6 0 0,0
22.09.2018 19:00:00 10,0 5,5 - - 4 2 - - ESE 1015,0 24 0,0
22.09.2018 18:00:00 10,8 6,4 - - 4 2 - - E 1015,2 0 0,0
22.09.2018 17:00:00 10,8 6,5 - - 8 4 - - ENE 1015,7 0 0,0
22.09.2018 16:00:00 10,9 5,9 - - 5 3 - - SE 1015,8 0 0,0
22.09.2018 15:00:00 10,9 7,1 - - 2 1 - - SSE 1016,0 0 0,2
22.09.2018 14:00:00 11,1 6,6 - - 5 3 - - WSW 1016,9 0 0,0
22.09.2018 13:00:00 11,2 6,7 - - 13 7 - - SW 1017,1 0 0,0
22.09.2018 12:00:00 11,0 7,0 - - 11 6 - - SW 1017,4 0 0,0
22.09.2018 11:00:00 10,7 7,5 - - 4 2 - - WSW 1017,6 0 0,0
22.09.2018 10:00:00 9,6 7,7 14,0 14,7 4 2 - - E 1018,0 0 0,0
22.09.2018 09:00:00 9,1 6,9 - - 2 1 - - NW 1017,6 0 0,0
22.09.2018 08:00:00 8,8 7,4 - - 8 4 - - WSW 1017,4 0 0,0
22.09.2018 07:00:00 7,3 6,0 - - 2 1 - - N 1017,7 0 0,0
22.09.2018 06:00:00 7,2 5,8 - - 4 2 - - ENE 1017,5 0 0,0
22.09.2018 05:00:00 9,1 6,4 - - 8 4 - - W 1017,4 0 0,0
22.09.2018 04:00:00 9,4 6,3 - - 9 5 - - W 1017,2 0 0,0
22.09.2018 03:00:00 9,5 6,5 - - 11 6 - - WSW 1017,3 0 0,0
22.09.2018 02:00:00 9,1 6,0 - - 9 5 - - WSW 1017,1 0 0,0
22.09.2018 01:00:00 10,0 5,6 - - 15 8 - - WSW 1016,8 - 0,0
22.09.2018 00:00:00 10,2 5,7 - - 13 7 - - W 1016,2 0 0,0
21.09.2018 23:00:00 11,3 6,3 - - 16 9 - - WSW 1015,9 0 0,0
21.09.2018 22:00:00 10,6 7,1 - - 13 7 - - WSW 1015,2 0 0,0
21.09.2018 21:00:00 10,8 6,7 - - 9 5 - - SW 1015,1 0 0,0
21.09.2018 20:00:00 10,2 6,5 - - 11 6 - - SW 1014,3 0 0,0
21.09.2018 19:00:00 10,9 6,2 - - 13 7 - - WSW 1013,1 18 0,0
21.09.2018 18:00:00 12,2 6,4 - - 22 12 50 27 W 1012,1 42 0,0
21.09.2018 17:00:00 13,2 6,7 - - 24 13 59 32 W 1011,1 48 0,0
21.09.2018 16:00:00 11,9 6,9 - - 28 15 59 32 W 1010,0 18 0,6
21.09.2018 15:00:00 11,5 8,2 - - 26 14 52 28 WSW 1008,5 0 0,2
21.09.2018 14:00:00 11,4 7,5 - - 26 14 59 32 WSW 1007,3 0 0,6
21.09.2018 13:00:00 10,1 8,0 - - 26 14 55 30 W 1005,9 0 0,8
21.09.2018 12:00:00 9,2 6,7 - - 31 17 55 30 W 1005,1 0 1,2
21.09.2018 11:00:00 9,5 6,4 - - 24 13 48 26 WSW 1004,2 0 0,0
21.09.2018 10:00:00 8,4 6,0 14,7 14,7 26 14 48 26 WSW 1004,1 0 1,4
21.09.2018 09:00:00 9,8 5,6 - - 26 14 50 27 WSW 1003,4 12 0,0
21.09.2018 08:00:00 8,8 5,3 - - 22 12 - - WSW 1003,1 0 0,0
21.09.2018 07:00:00 8,8 5,7 - - 16 9 - - WSW 1002,1 0 0,0
21.09.2018 06:00:00 9,1 5,2 - - 26 14 55 30 W 1001,5 0 0,4
21.09.2018 05:00:00 8,6 5,6 - - 18 10 50 27 W 1000,7 0 0,4
21.09.2018 04:00:00 8,1 5,2 - - 18 10 46 25 W 1000,1 0 0,2
21.09.2018 03:00:00 8,6 6,1 - - 21 11 - - WSW 998,1 0 0,2
21.09.2018 02:00:00 8,9 5,8 - - 16 9 - - W 996,3 0 0,0
21.09.2018 01:00:00 10,3 7,3 - - 16 9 48 26 WNW 993,8 - 0,2
21.09.2018 00:00:00 14,6 12,1 - - 29 16 50 27 SW 989,5 0 0,6
20.09.2018 23:00:00 15,7 13,3 - - 26 14 46 25 SW 989,7 0 1,0
20.09.2018 22:00:00 15,8 14,2 - - 28 15 48 26 SW 991,6 0 2,6
20.09.2018 21:00:00 16,3 14,5 - - 16 9 46 25 WSW 993,2 0 3,6
20.09.2018 20:00:00 15,9 14,6 - - 15 8 - - WSW 994,5 0 6,0
20.09.2018 19:00:00 15,9 14,5 - - 24 13 52 28 SW 996,0 0 4,8
20.09.2018 18:00:00 16,5 15,3 - - 28 15 - - SW 996,8 0 3,6
20.09.2018 17:00:00 10,8 10,2 - - 8 4 - - E 999,2 0 9,6
20.09.2018 16:00:00 10,7 10,1 - - 8 4 - - E 1000,6 0 8,4
20.09.2018 15:00:00 10,7 10,0 - - 9 5 - - ENE 1002,3 0 7,8
20.09.2018 14:00:00 10,7 10,0 - - 4 2 - - NE 1004,0 0 6,8
20.09.2018 13:00:00 10,9 9,9 - - 9 5 - - ENE 1006,0 0 4,2
20.09.2018 12:00:00 11,5 9,2 - - 2 1 - - N 1007,6 0 0,8
20.09.2018 11:00:00 12,1 8,2 - - 5 3 - - SE 1008,5 0 0,0
20.09.2018 10:00:00 11,6 8,2 15,0 14,9 2 1 - - NNE 1009,4 0 0,0
20.09.2018 09:00:00 10,7 8,4 - - 4 2 - - WSW 1009,8 0 0,0
20.09.2018 08:00:00 10,1 8,4 - - 0 0 - - N 1010,1 0 0,0
20.09.2018 07:00:00 10,1 7,9 - - 9 5 - - WSW 1010,1 0 0,0
20.09.2018 06:00:00 10,2 8,3 - - 11 6 - - WSW 1010,4 0 0,0
20.09.2018 05:00:00 9,8 7,9 - - 9 5 - - WSW 1010,2 0 0,0
20.09.2018 04:00:00 9,7 7,6 - - 5 3 - - SW 1010,3 0 0,2
20.09.2018 03:00:00 10,1 8,0 - - 15 8 - - SW 1010,3 0 0,8
20.09.2018 02:00:00 11,0 8,9 - - 18 10 - - WSW 1010,5 0 0,4
20.09.2018 01:00:00 11,3 8,4 - - 21 11 - - SW 1010,3 - 0,0
20.09.2018 00:00:00 11,7 7,6 - - 24 13 - - SW 1010,4 0 0,0
19.09.2018 23:00:00 11,7 8,4 - - 24 13 - - SW 1010,4 0 0,0
19.09.2018 22:00:00 11,5 8,5 - - 28 15 55 30 SW 1010,2 0 0,2
19.09.2018 21:00:00 12,5 7,6 - - 28 15 52 28 WSW 1009,7 0 0,0
19.09.2018 20:00:00 12,5 7,0 - - 29 16 55 30 WSW 1008,9 0 0,0
19.09.2018 19:00:00 13,0 7,4 - - 39 21 61 33 SW 1008,7 0 0,0
19.09.2018 18:00:00 13,2 8,0 - - 34 18 72 39 WSW 1008,3 0 0,0
19.09.2018 17:00:00 13,4 7,3 - - 46 25 68 37 WSW 1007,0 12 0,0
19.09.2018 16:00:00 13,7 8,1 - - 46 25 78 42 WSW 1006,0 6 0,0
19.09.2018 15:00:00 13,7 8,0 - - 44 24 76 41 WSW 1005,1 48 0,0
19.09.2018 14:00:00 14,7 7,8 - - 54 29 94 51 WSW 1004,1 42 0,0
19.09.2018 13:00:00 14,3 11,7 - - 39 21 76 41 WSW 1003,4 0 2,4
19.09.2018 12:00:00 15,8 13,6 - - 44 24 76 41 SW 1001,8 0 0,2
19.09.2018 11:00:00 17,5 11,8 - - 42 23 74 40 SW 1001,5 6 0,0
19.09.2018 10:00:00 17,1 10,8 15,2 14,9 34 18 70 38 SW 1002,0 54 0,0
19.09.2018 09:00:00 16,3 10,7 - - 39 21 80 43 SW 1002,7 0 0,0
19.09.2018 08:00:00 16,2 10,4 - - 34 18 65 35 SW 1003,1 0 0,0
19.09.2018 07:00:00 15,3 10,3 - - 22 12 46 25 SW 1003,9 0 0,0

tt = temperature
td = dewpoint
tt -20cm = temperature -20cm
tt -100cm = temperature -100cm
ff = wind speed
fx = gusts
dd = wind direction
ppp = reduced air pressure
sd = sunshine duration
rr = precipitation

Next stations